sensor_id;sensor_type;location;lat;lon;timestamp;P1;durP1;ratioP1;P2;durP2;ratioP2
70707;SDS011;58277;47.316;18.908;2023-08-31T00:01:06;6.38;;;4.25;;
70707;SDS011;58277;47.316;18.908;2023-08-31T00:03:30;6.22;;;4.28;;
70707;SDS011;58277;47.316;18.908;2023-08-31T00:05:53;7.18;;;4.60;;
70707;SDS011;58277;47.316;18.908;2023-08-31T00:08:16;8.10;;;4.40;;
70707;SDS011;58277;47.316;18.908;2023-08-31T00:10:40;6.53;;;4.18;;
70707;SDS011;58277;47.316;18.908;2023-08-31T00:13:02;6.28;;;4.18;;
70707;SDS011;58277;47.316;18.908;2023-08-31T00:15:26;7.13;;;4.47;;
70707;SDS011;58277;47.316;18.908;2023-08-31T00:17:50;7.88;;;4.30;;
70707;SDS011;58277;47.316;18.908;2023-08-31T00:20:13;7.82;;;4.22;;
70707;SDS011;58277;47.316;18.908;2023-08-31T00:22:36;7.43;;;4.45;;
70707;SDS011;58277;47.316;18.908;2023-08-31T00:24:58;6.38;;;4.07;;
70707;SDS011;58277;47.316;18.908;2023-08-31T00:27:21;6.20;;;3.75;;
70707;SDS011;58277;47.316;18.908;2023-08-31T00:29:44;6.57;;;4.15;;
70707;SDS011;58277;47.316;18.908;2023-08-31T00:32:11;6.80;;;3.85;;
70707;SDS011;58277;47.316;18.908;2023-08-31T00:34:36;6.45;;;3.97;;
70707;SDS011;58277;47.316;18.908;2023-08-31T00:36:59;7.65;;;4.60;;
70707;SDS011;58277;47.316;18.908;2023-08-31T00:39:24;7.22;;;3.95;;
70707;SDS011;58277;47.316;18.908;2023-08-31T00:41:47;6.95;;;4.38;;
70707;SDS011;58277;47.316;18.908;2023-08-31T00:44:10;6.45;;;4.22;;
70707;SDS011;58277;47.316;18.908;2023-08-31T00:46:33;6.78;;;4.20;;
70707;SDS011;58277;47.316;18.908;2023-08-31T00:48:57;6.97;;;3.90;;
70707;SDS011;58277;47.316;18.908;2023-08-31T00:51:20;6.75;;;4.20;;
70707;SDS011;58277;47.316;18.908;2023-08-31T00:53:44;7.63;;;4.20;;
70707;SDS011;58277;47.316;18.908;2023-08-31T00:56:07;6.07;;;3.80;;
70707;SDS011;58277;47.316;18.908;2023-08-31T00:58:30;6.68;;;4.13;;
70707;SDS011;58277;47.316;18.908;2023-08-31T01:08:56;5.93;;;3.72;;
70707;SDS011;58277;47.316;18.908;2023-08-31T01:11:31;7.22;;;4.60;;
70707;SDS011;58277;47.316;18.908;2023-08-31T01:14:10;5.88;;;3.67;;
70707;SDS011;58277;47.316;18.908;2023-08-31T01:16:38;6.28;;;3.70;;
70707;SDS011;58277;47.316;18.908;2023-08-31T01:19:06;5.80;;;3.83;;
70707;SDS011;58277;47.316;18.908;2023-08-31T01:21:41;6.85;;;3.65;;
70707;SDS011;58277;47.316;18.908;2023-08-31T01:24:07;8.00;;;4.25;;
70707;SDS011;58277;47.316;18.908;2023-08-31T01:26:30;6.55;;;3.72;;
70707;SDS011;58277;47.316;18.908;2023-08-31T01:28:54;5.50;;;3.83;;
70707;SDS011;58277;47.316;18.908;2023-08-31T01:31:17;5.45;;;3.85;;
70707;SDS011;58277;47.316;18.908;2023-08-31T01:33:42;8.23;;;3.90;;
70707;SDS011;58277;47.316;18.908;2023-08-31T01:36:08;5.97;;;3.80;;
70707;SDS011;58277;47.316;18.908;2023-08-31T01:38:42;5.78;;;3.78;;
70707;SDS011;58277;47.316;18.908;2023-08-31T01:44:16;4.78;;;3.38;;
70707;SDS011;58277;47.316;18.908;2023-08-31T01:46:41;6.60;;;3.60;;
70707;SDS011;58277;47.316;18.908;2023-08-31T01:49:04;5.53;;;3.63;;
70707;SDS011;58277;47.316;18.908;2023-08-31T01:51:28;5.95;;;3.63;;
70707;SDS011;58277;47.316;18.908;2023-08-31T01:53:50;5.72;;;3.95;;
70707;SDS011;58277;47.316;18.908;2023-08-31T01:56:13;7.25;;;4.00;;
70707;SDS011;58277;47.316;18.908;2023-08-31T01:58:37;6.05;;;3.58;;
70707;SDS011;58277;47.316;18.908;2023-08-31T02:00:59;6.18;;;3.78;;
70707;SDS011;58277;47.316;18.908;2023-08-31T02:03:23;5.63;;;3.58;;
70707;SDS011;58277;47.316;18.908;2023-08-31T02:05:46;5.80;;;3.50;;
70707;SDS011;58277;47.316;18.908;2023-08-31T02:08:09;6.40;;;3.97;;
70707;SDS011;58277;47.316;18.908;2023-08-31T02:10:32;6.75;;;3.78;;
70707;SDS011;58277;47.316;18.908;2023-08-31T02:12:55;8.05;;;3.90;;
70707;SDS011;58277;47.316;18.908;2023-08-31T02:15:17;6.80;;;3.95;;
70707;SDS011;58277;47.316;18.908;2023-08-31T02:17:40;7.47;;;3.90;;
70707;SDS011;58277;47.316;18.908;2023-08-31T02:20:03;7.63;;;4.10;;
70707;SDS011;58277;47.316;18.908;2023-08-31T02:22:29;5.95;;;3.88;;
70707;SDS011;58277;47.316;18.908;2023-08-31T02:24:56;5.70;;;3.80;;
70707;SDS011;58277;47.316;18.908;2023-08-31T02:27:18;7.13;;;4.20;;
70707;SDS011;58277;47.316;18.908;2023-08-31T02:29:43;6.75;;;4.00;;
70707;SDS011;58277;47.316;18.908;2023-08-31T02:32:06;6.25;;;3.90;;
70707;SDS011;58277;47.316;18.908;2023-08-31T02:34:29;8.60;;;4.43;;
70707;SDS011;58277;47.316;18.908;2023-08-31T02:36:52;6.90;;;4.18;;
70707;SDS011;58277;47.316;18.908;2023-08-31T02:39:15;6.18;;;4.03;;
70707;SDS011;58277;47.316;18.908;2023-08-31T02:41:38;6.28;;;4.00;;
70707;SDS011;58277;47.316;18.908;2023-08-31T02:44:01;7.10;;;3.90;;
70707;SDS011;58277;47.316;18.908;2023-08-31T02:46:23;8.40;;;4.40;;
70707;SDS011;58277;47.316;18.908;2023-08-31T02:48:46;6.65;;;4.07;;
70707;SDS011;58277;47.316;18.908;2023-08-31T02:51:10;6.63;;;3.70;;
70707;SDS011;58277;47.316;18.908;2023-08-31T02:53:32;6.25;;;4.20;;
70707;SDS011;58277;47.316;18.908;2023-08-31T02:55:55;6.88;;;3.92;;
70707;SDS011;58277;47.316;18.908;2023-08-31T02:58:19;6.22;;;3.95;;
70707;SDS011;58277;47.316;18.908;2023-08-31T03:00:41;6.80;;;4.35;;
70707;SDS011;58277;47.316;18.908;2023-08-31T03:03:08;6.53;;;4.28;;
70707;SDS011;58277;47.316;18.908;2023-08-31T03:05:33;8.05;;;4.00;;
70707;SDS011;58277;47.316;18.908;2023-08-31T03:07:56;7.43;;;4.32;;
70707;SDS011;58277;47.316;18.908;2023-08-31T03:10:20;7.70;;;4.38;;
70707;SDS011;58277;47.316;18.908;2023-08-31T03:12:43;7.93;;;4.50;;
70707;SDS011;58277;47.316;18.908;2023-08-31T03:15:06;10.43;;;4.40;;
70707;SDS011;58277;47.316;18.908;2023-08-31T03:17:29;9.13;;;4.57;;
70707;SDS011;58277;47.316;18.908;2023-08-31T03:19:52;7.22;;;4.53;;
70707;SDS011;58277;47.316;18.908;2023-08-31T03:22:15;6.97;;;4.30;;
70707;SDS011;58277;47.316;18.908;2023-08-31T03:24:38;6.72;;;4.25;;
70707;SDS011;58277;47.316;18.908;2023-08-31T03:27:00;8.15;;;4.50;;
70707;SDS011;58277;47.316;18.908;2023-08-31T03:29:23;7.18;;;4.60;;
70707;SDS011;58277;47.316;18.908;2023-08-31T03:31:46;6.90;;;4.78;;
70707;SDS011;58277;47.316;18.908;2023-08-31T03:34:10;7.97;;;4.57;;
70707;SDS011;58277;47.316;18.908;2023-08-31T03:36:34;7.00;;;4.70;;
70707;SDS011;58277;47.316;18.908;2023-08-31T03:38:57;8.23;;;4.80;;
70707;SDS011;58277;47.316;18.908;2023-08-31T03:41:20;6.90;;;4.57;;
70707;SDS011;58277;47.316;18.908;2023-08-31T03:43:42;7.72;;;4.68;;
70707;SDS011;58277;47.316;18.908;2023-08-31T03:46:06;8.13;;;4.80;;
70707;SDS011;58277;47.316;18.908;2023-08-31T03:48:29;7.35;;;5.10;;
70707;SDS011;58277;47.316;18.908;2023-08-31T03:50:52;7.95;;;4.95;;
70707;SDS011;58277;47.316;18.908;2023-08-31T03:53:17;8.57;;;5.30;;
70707;SDS011;58277;47.316;18.908;2023-08-31T03:55:40;8.05;;;5.30;;
70707;SDS011;58277;47.316;18.908;2023-08-31T03:58:02;7.85;;;4.90;;
70707;SDS011;58277;47.316;18.908;2023-08-31T04:00:26;8.88;;;5.50;;
70707;SDS011;58277;47.316;18.908;2023-08-31T04:02:49;7.30;;;4.95;;
70707;SDS011;58277;47.316;18.908;2023-08-31T04:05:17;10.40;;;5.63;;
70707;SDS011;58277;47.316;18.908;2023-08-31T04:07:39;8.10;;;5.32;;
70707;SDS011;58277;47.316;18.908;2023-08-31T04:10:02;9.18;;;5.20;;
70707;SDS011;58277;47.316;18.908;2023-08-31T04:12:26;10.20;;;5.45;;
70707;SDS011;58277;47.316;18.908;2023-08-31T04:14:48;8.40;;;5.68;;
70707;SDS011;58277;47.316;18.908;2023-08-31T04:17:11;9.75;;;5.28;;
70707;SDS011;58277;47.316;18.908;2023-08-31T04:19:34;8.32;;;5.35;;
70707;SDS011;58277;47.316;18.908;2023-08-31T04:21:56;8.27;;;5.07;;
70707;SDS011;58277;47.316;18.908;2023-08-31T04:24:19;7.85;;;5.78;;
70707;SDS011;58277;47.316;18.908;2023-08-31T04:26:42;8.50;;;5.32;;
70707;SDS011;58277;47.316;18.908;2023-08-31T04:29:06;8.05;;;5.20;;
70707;SDS011;58277;47.316;18.908;2023-08-31T04:31:29;8.45;;;5.32;;
70707;SDS011;58277;47.316;18.908;2023-08-31T04:33:52;9.07;;;5.70;;
70707;SDS011;58277;47.316;18.908;2023-08-31T04:36:17;9.05;;;6.00;;
70707;SDS011;58277;47.316;18.908;2023-08-31T04:38:40;11.93;;;6.05;;
70707;SDS011;58277;47.316;18.908;2023-08-31T04:41:03;10.63;;;6.30;;
70707;SDS011;58277;47.316;18.908;2023-08-31T04:43:26;10.27;;;6.18;;
70707;SDS011;58277;47.316;18.908;2023-08-31T04:45:51;9.30;;;5.57;;
70707;SDS011;58277;47.316;18.908;2023-08-31T04:48:14;8.95;;;5.90;;
70707;SDS011;58277;47.316;18.908;2023-08-31T04:50:38;8.00;;;5.63;;
70707;SDS011;58277;47.316;18.908;2023-08-31T04:53:01;9.98;;;5.20;;
70707;SDS011;58277;47.316;18.908;2023-08-31T04:55:24;9.20;;;5.55;;
70707;SDS011;58277;47.316;18.908;2023-08-31T04:57:47;9.40;;;5.57;;
70707;SDS011;58277;47.316;18.908;2023-08-31T05:00:10;8.35;;;5.10;;
70707;SDS011;58277;47.316;18.908;2023-08-31T05:02:34;12.43;;;5.80;;
70707;SDS011;58277;47.316;18.908;2023-08-31T05:04:57;8.50;;;5.82;;
70707;SDS011;58277;47.316;18.908;2023-08-31T05:07:20;9.38;;;5.22;;
70707;SDS011;58277;47.316;18.908;2023-08-31T05:09:42;8.45;;;5.90;;
70707;SDS011;58277;47.316;18.908;2023-08-31T05:12:05;8.75;;;5.35;;
70707;SDS011;58277;47.316;18.908;2023-08-31T05:14:32;7.70;;;5.28;;
70707;SDS011;58277;47.316;18.908;2023-08-31T05:16:54;8.13;;;5.13;;
70707;SDS011;58277;47.316;18.908;2023-08-31T05:19:18;7.25;;;5.00;;
70707;SDS011;58277;47.316;18.908;2023-08-31T05:21:40;8.23;;;5.20;;
70707;SDS011;58277;47.316;18.908;2023-08-31T05:24:03;7.05;;;4.95;;
70707;SDS011;58277;47.316;18.908;2023-08-31T05:26:26;7.35;;;4.78;;
70707;SDS011;58277;47.316;18.908;2023-08-31T05:28:49;6.38;;;4.80;;
70707;SDS011;58277;47.316;18.908;2023-08-31T05:31:12;8.77;;;5.55;;
70707;SDS011;58277;47.316;18.908;2023-08-31T05:33:34;8.18;;;4.82;;
70707;SDS011;58277;47.316;18.908;2023-08-31T05:35:57;9.55;;;6.10;;
70707;SDS011;58277;47.316;18.908;2023-08-31T05:38:23;11.48;;;5.45;;
70707;SDS011;58277;47.316;18.908;2023-08-31T05:40:45;8.63;;;5.07;;
70707;SDS011;58277;47.316;18.908;2023-08-31T05:43:08;10.30;;;4.60;;
70707;SDS011;58277;47.316;18.908;2023-08-31T05:45:32;7.30;;;4.82;;
70707;SDS011;58277;47.316;18.908;2023-08-31T05:47:56;10.50;;;4.43;;
70707;SDS011;58277;47.316;18.908;2023-08-31T05:50:18;6.88;;;4.97;;
70707;SDS011;58277;47.316;18.908;2023-08-31T05:52:41;8.98;;;4.85;;
70707;SDS011;58277;47.316;18.908;2023-08-31T05:55:06;8.70;;;4.80;;
70707;SDS011;58277;47.316;18.908;2023-08-31T05:57:29;7.13;;;4.60;;
70707;SDS011;58277;47.316;18.908;2023-08-31T05:59:52;7.03;;;4.53;;
70707;SDS011;58277;47.316;18.908;2023-08-31T06:02:15;6.72;;;4.82;;
70707;SDS011;58277;47.316;18.908;2023-08-31T06:04:38;6.85;;;4.32;;
70707;SDS011;58277;47.316;18.908;2023-08-31T06:07:01;6.97;;;4.88;;
70707;SDS011;58277;47.316;18.908;2023-08-31T06:09:24;8.35;;;4.72;;
70707;SDS011;58277;47.316;18.908;2023-08-31T06:11:46;7.25;;;5.07;;
70707;SDS011;58277;47.316;18.908;2023-08-31T06:14:09;6.40;;;4.70;;
70707;SDS011;58277;47.316;18.908;2023-08-31T06:16:32;6.82;;;4.93;;
70707;SDS011;58277;47.316;18.908;2023-08-31T06:18:54;6.30;;;4.60;;
70707;SDS011;58277;47.316;18.908;2023-08-31T06:21:17;7.18;;;5.20;;
70707;SDS011;58277;47.316;18.908;2023-08-31T06:23:40;7.40;;;5.25;;
70707;SDS011;58277;47.316;18.908;2023-08-31T06:26:02;6.80;;;4.85;;
70707;SDS011;58277;47.316;18.908;2023-08-31T06:28:25;9.75;;;5.95;;
70707;SDS011;58277;47.316;18.908;2023-08-31T06:30:48;7.25;;;5.63;;
70707;SDS011;58277;47.316;18.908;2023-08-31T06:33:11;6.40;;;5.20;;
70707;SDS011;58277;47.316;18.908;2023-08-31T06:35:38;6.82;;;5.28;;
70707;SDS011;58277;47.316;18.908;2023-08-31T06:38:00;7.07;;;5.20;;
70707;SDS011;58277;47.316;18.908;2023-08-31T06:40:23;6.53;;;5.18;;
70707;SDS011;58277;47.316;18.908;2023-08-31T06:42:46;8.10;;;5.40;;
70707;SDS011;58277;47.316;18.908;2023-08-31T06:45:09;6.32;;;5.13;;
70707;SDS011;58277;47.316;18.908;2023-08-31T06:47:32;6.32;;;5.30;;
70707;SDS011;58277;47.316;18.908;2023-08-31T06:49:56;8.65;;;5.40;;
70707;SDS011;58277;47.316;18.908;2023-08-31T06:52:20;7.20;;;5.25;;
70707;SDS011;58277;47.316;18.908;2023-08-31T06:54:53;8.13;;;5.20;;
70707;SDS011;58277;47.316;18.908;2023-08-31T06:57:19;6.82;;;5.15;;
70707;SDS011;58277;47.316;18.908;2023-08-31T06:59:42;6.78;;;4.93;;
70707;SDS011;58277;47.316;18.908;2023-08-31T07:02:04;7.28;;;4.38;;
70707;SDS011;58277;47.316;18.908;2023-08-31T07:04:27;6.60;;;4.45;;
70707;SDS011;58277;47.316;18.908;2023-08-31T07:06:50;5.93;;;4.47;;
70707;SDS011;58277;47.316;18.908;2023-08-31T07:09:14;5.80;;;4.20;;
70707;SDS011;58277;47.316;18.908;2023-08-31T07:11:37;5.50;;;4.40;;
70707;SDS011;58277;47.316;18.908;2023-08-31T07:13:59;7.25;;;4.20;;
70707;SDS011;58277;47.316;18.908;2023-08-31T07:16:22;7.63;;;4.60;;
70707;SDS011;58277;47.316;18.908;2023-08-31T07:18:45;7.00;;;4.78;;
70707;SDS011;58277;47.316;18.908;2023-08-31T07:21:08;7.25;;;4.07;;
70707;SDS011;58277;47.316;18.908;2023-08-31T07:23:33;5.55;;;4.32;;
70707;SDS011;58277;47.316;18.908;2023-08-31T07:25:58;5.53;;;4.43;;
70707;SDS011;58277;47.316;18.908;2023-08-31T07:28:22;6.10;;;4.28;;
70707;SDS011;58277;47.316;18.908;2023-08-31T07:30:45;5.47;;;4.00;;
70707;SDS011;58277;47.316;18.908;2023-08-31T07:33:08;8.27;;;4.20;;
70707;SDS011;58277;47.316;18.908;2023-08-31T07:35:50;6.10;;;3.95;;
70707;SDS011;58277;47.316;18.908;2023-08-31T07:38:13;5.65;;;4.40;;
70707;SDS011;58277;47.316;18.908;2023-08-31T07:40:36;5.93;;;3.88;;
70707;SDS011;58277;47.316;18.908;2023-08-31T07:42:58;5.50;;;4.20;;
70707;SDS011;58277;47.316;18.908;2023-08-31T07:45:21;5.40;;;4.30;;
70707;SDS011;58277;47.316;18.908;2023-08-31T07:47:44;5.60;;;4.28;;
70707;SDS011;58277;47.316;18.908;2023-08-31T07:50:07;6.32;;;4.00;;
70707;SDS011;58277;47.316;18.908;2023-08-31T07:52:30;5.80;;;4.10;;
70707;SDS011;58277;47.316;18.908;2023-08-31T07:54:53;5.50;;;4.13;;
70707;SDS011;58277;47.316;18.908;2023-08-31T07:57:16;6.93;;;4.15;;
70707;SDS011;58277;47.316;18.908;2023-08-31T07:59:38;6.22;;;4.30;;
70707;SDS011;58277;47.316;18.908;2023-08-31T08:02:03;5.80;;;4.07;;
70707;SDS011;58277;47.316;18.908;2023-08-31T08:04:26;5.30;;;3.78;;
70707;SDS011;58277;47.316;18.908;2023-08-31T08:06:49;4.65;;;3.97;;
70707;SDS011;58277;47.316;18.908;2023-08-31T08:09:13;5.65;;;4.03;;
70707;SDS011;58277;47.316;18.908;2023-08-31T08:11:35;7.32;;;3.95;;
70707;SDS011;58277;47.316;18.908;2023-08-31T08:13:59;6.05;;;4.38;;
70707;SDS011;58277;47.316;18.908;2023-08-31T08:16:22;6.20;;;4.60;;
70707;SDS011;58277;47.316;18.908;2023-08-31T08:18:45;6.72;;;4.90;;
70707;SDS011;58277;47.316;18.908;2023-08-31T08:21:07;4.70;;;3.60;;
70707;SDS011;58277;47.316;18.908;2023-08-31T08:23:30;4.88;;;3.65;;
70707;SDS011;58277;47.316;18.908;2023-08-31T08:25:54;7.55;;;4.65;;
70707;SDS011;58277;47.316;18.908;2023-08-31T08:28:16;5.20;;;4.03;;
70707;SDS011;58277;47.316;18.908;2023-08-31T08:30:39;5.22;;;4.03;;
70707;SDS011;58277;47.316;18.908;2023-08-31T08:33:02;4.90;;;3.50;;
70707;SDS011;58277;47.316;18.908;2023-08-31T08:35:25;5.78;;;3.78;;
70707;SDS011;58277;47.316;18.908;2023-08-31T08:37:50;4.65;;;3.60;;
70707;SDS011;58277;47.316;18.908;2023-08-31T08:40:12;4.95;;;3.75;;
70707;SDS011;58277;47.316;18.908;2023-08-31T08:42:38;5.57;;;3.65;;
70707;SDS011;58277;47.316;18.908;2023-08-31T08:45:03;5.03;;;3.75;;
70707;SDS011;58277;47.316;18.908;2023-08-31T08:47:28;6.20;;;3.92;;
70707;SDS011;58277;47.316;18.908;2023-08-31T08:49:52;5.53;;;3.63;;
70707;SDS011;58277;47.316;18.908;2023-08-31T08:52:16;5.75;;;3.60;;
70707;SDS011;58277;47.316;18.908;2023-08-31T08:54:39;4.97;;;3.25;;
70707;SDS011;58277;47.316;18.908;2023-08-31T08:57:02;4.72;;;3.13;;
70707;SDS011;58277;47.316;18.908;2023-08-31T08:59:25;3.70;;;2.80;;
70707;SDS011;58277;47.316;18.908;2023-08-31T09:01:49;4.55;;;3.22;;
70707;SDS011;58277;47.316;18.908;2023-08-31T09:04:12;4.13;;;2.78;;
70707;SDS011;58277;47.316;18.908;2023-08-31T09:06:35;4.50;;;2.80;;
70707;SDS011;58277;47.316;18.908;2023-08-31T09:08:59;5.18;;;3.00;;
70707;SDS011;58277;47.316;18.908;2023-08-31T09:11:22;6.72;;;3.15;;
70707;SDS011;58277;47.316;18.908;2023-08-31T09:13:45;4.40;;;2.75;;
70707;SDS011;58277;47.316;18.908;2023-08-31T09:16:12;7.93;;;2.72;;
70707;SDS011;58277;47.316;18.908;2023-08-31T09:18:51;3.63;;;2.80;;
70707;SDS011;58277;47.316;18.908;2023-08-31T09:21:16;4.25;;;3.00;;
70707;SDS011;58277;47.316;18.908;2023-08-31T09:24:00;3.72;;;2.80;;
70707;SDS011;58277;47.316;18.908;2023-08-31T09:26:23;3.45;;;2.70;;
70707;SDS011;58277;47.316;18.908;2023-08-31T09:28:46;5.43;;;2.83;;
70707;SDS011;58277;47.316;18.908;2023-08-31T09:31:09;4.18;;;2.60;;
70707;SDS011;58277;47.316;18.908;2023-08-31T09:33:32;4.00;;;2.88;;
70707;SDS011;58277;47.316;18.908;2023-08-31T09:35:57;6.95;;;2.92;;
70707;SDS011;58277;47.316;18.908;2023-08-31T09:38:22;4.03;;;2.95;;
70707;SDS011;58277;47.316;18.908;2023-08-31T09:40:45;4.55;;;3.20;;
70707;SDS011;58277;47.316;18.908;2023-08-31T09:43:08;3.47;;;3.15;;
70707;SDS011;58277;47.316;18.908;2023-08-31T09:45:32;6.70;;;3.00;;
70707;SDS011;58277;47.316;18.908;2023-08-31T09:47:59;8.73;;;3.13;;
70707;SDS011;58277;47.316;18.908;2023-08-31T09:50:24;3.95;;;2.78;;
70707;SDS011;58277;47.316;18.908;2023-08-31T09:52:48;5.40;;;2.80;;
70707;SDS011;58277;47.316;18.908;2023-08-31T09:55:15;5.13;;;2.72;;
70707;SDS011;58277;47.316;18.908;2023-08-31T09:57:40;3.55;;;3.05;;
70707;SDS011;58277;47.316;18.908;2023-08-31T10:00:10;4.25;;;3.08;;
70707;SDS011;58277;47.316;18.908;2023-08-31T10:02:38;4.07;;;3.05;;
70707;SDS011;58277;47.316;18.908;2023-08-31T10:05:01;4.35;;;2.95;;
70707;SDS011;58277;47.316;18.908;2023-08-31T10:07:27;5.30;;;3.72;;
70707;SDS011;58277;47.316;18.908;2023-08-31T10:09:51;4.68;;;2.80;;
70707;SDS011;58277;47.316;18.908;2023-08-31T10:12:14;3.58;;;2.42;;
70707;SDS011;58277;47.316;18.908;2023-08-31T10:14:38;3.47;;;2.70;;
70707;SDS011;58277;47.316;18.908;2023-08-31T10:17:01;6.32;;;2.63;;
70707;SDS011;58277;47.316;18.908;2023-08-31T10:19:25;4.50;;;2.88;;
70707;SDS011;58277;47.316;18.908;2023-08-31T10:21:48;4.63;;;3.33;;
70707;SDS011;58277;47.316;18.908;2023-08-31T10:24:11;4.18;;;2.67;;
70707;SDS011;58277;47.316;18.908;2023-08-31T10:26:35;4.47;;;2.60;;
70707;SDS011;58277;47.316;18.908;2023-08-31T10:28:58;3.85;;;2.65;;
70707;SDS011;58277;47.316;18.908;2023-08-31T10:31:22;3.53;;;2.53;;
70707;SDS011;58277;47.316;18.908;2023-08-31T10:36:19;3.65;;;2.65;;
70707;SDS011;58277;47.316;18.908;2023-08-31T10:38:47;5.63;;;2.40;;
70707;SDS011;58277;47.316;18.908;2023-08-31T10:41:22;4.93;;;2.70;;
70707;SDS011;58277;47.316;18.908;2023-08-31T10:43:56;3.63;;;2.80;;
70707;SDS011;58277;47.316;18.908;2023-08-31T10:48:49;3.83;;;2.13;;
70707;SDS011;58277;47.316;18.908;2023-08-31T10:52:00;5.10;;;2.33;;
70707;SDS011;58277;47.316;18.908;2023-08-31T10:54:57;3.33;;;2.30;;
70707;SDS011;58277;47.316;18.908;2023-08-31T10:57:30;3.08;;;2.20;;
70707;SDS011;58277;47.316;18.908;2023-08-31T10:59:54;4.90;;;3.63;;
70707;SDS011;58277;47.316;18.908;2023-08-31T11:02:28;2.90;;;2.00;;
70707;SDS011;58277;47.316;18.908;2023-08-31T11:04:52;2.85;;;2.25;;
70707;SDS011;58277;47.316;18.908;2023-08-31T11:07:19;2.63;;;2.13;;
70707;SDS011;58277;47.316;18.908;2023-08-31T11:09:46;3.42;;;2.40;;
70707;SDS011;58277;47.316;18.908;2023-08-31T11:12:09;2.70;;;2.03;;
70707;SDS011;58277;47.316;18.908;2023-08-31T11:14:33;4.10;;;2.28;;
70707;SDS011;58277;47.316;18.908;2023-08-31T11:16:56;4.10;;;2.20;;
70707;SDS011;58277;47.316;18.908;2023-08-31T11:19:19;3.75;;;2.30;;
70707;SDS011;58277;47.316;18.908;2023-08-31T11:21:42;4.18;;;2.40;;
70707;SDS011;58277;47.316;18.908;2023-08-31T11:24:05;5.28;;;2.75;;
70707;SDS011;58277;47.316;18.908;2023-08-31T11:26:29;2.65;;;2.13;;
70707;SDS011;58277;47.316;18.908;2023-08-31T11:28:55;3.53;;;2.22;;
70707;SDS011;58277;47.316;18.908;2023-08-31T11:31:24;2.70;;;2.15;;
70707;SDS011;58277;47.316;18.908;2023-08-31T11:33:47;3.88;;;2.72;;
70707;SDS011;58277;47.316;18.908;2023-08-31T11:36:10;3.05;;;2.38;;
70707;SDS011;58277;47.316;18.908;2023-08-31T11:38:39;2.92;;;2.25;;
70707;SDS011;58277;47.316;18.908;2023-08-31T11:41:02;3.10;;;2.50;;
70707;SDS011;58277;47.316;18.908;2023-08-31T11:43:26;3.08;;;2.55;;
70707;SDS011;58277;47.316;18.908;2023-08-31T11:45:49;4.95;;;3.13;;
70707;SDS011;58277;47.316;18.908;2023-08-31T11:48:12;3.50;;;2.80;;
70707;SDS011;58277;47.316;18.908;2023-08-31T11:50:36;4.22;;;2.95;;
70707;SDS011;58277;47.316;18.908;2023-08-31T11:53:02;4.40;;;3.20;;
70707;SDS011;58277;47.316;18.908;2023-08-31T11:55:25;3.40;;;2.92;;
70707;SDS011;58277;47.316;18.908;2023-08-31T11:57:50;3.80;;;3.00;;
70707;SDS011;58277;47.316;18.908;2023-08-31T12:00:16;3.40;;;3.08;;
70707;SDS011;58277;47.316;18.908;2023-08-31T12:02:39;4.22;;;3.00;;
70707;SDS011;58277;47.316;18.908;2023-08-31T12:05:02;4.53;;;3.50;;
70707;SDS011;58277;47.316;18.908;2023-08-31T12:07:28;3.97;;;3.03;;
70707;SDS011;58277;47.316;18.908;2023-08-31T12:09:50;4.07;;;3.30;;
70707;SDS011;58277;47.316;18.908;2023-08-31T12:12:13;4.32;;;3.20;;
70707;SDS011;58277;47.316;18.908;2023-08-31T12:14:37;4.75;;;3.25;;
70707;SDS011;58277;47.316;18.908;2023-08-31T12:17:07;4.38;;;3.28;;
70707;SDS011;58277;47.316;18.908;2023-08-31T12:19:36;4.40;;;3.20;;
70707;SDS011;58277;47.316;18.908;2023-08-31T12:25:05;4.00;;;2.95;;
70707;SDS011;58277;47.316;18.908;2023-08-31T12:27:28;5.70;;;3.28;;
70707;SDS011;58277;47.316;18.908;2023-08-31T12:29:52;4.82;;;2.97;;
70707;SDS011;58277;47.316;18.908;2023-08-31T12:32:16;3.95;;;2.70;;
70707;SDS011;58277;47.316;18.908;2023-08-31T12:34:40;3.53;;;2.83;;
70707;SDS011;58277;47.316;18.908;2023-08-31T12:37:03;5.07;;;2.97;;
70707;SDS011;58277;47.316;18.908;2023-08-31T12:39:27;4.35;;;2.95;;
70707;SDS011;58277;47.316;18.908;2023-08-31T12:41:49;3.80;;;3.10;;
70707;SDS011;58277;47.316;18.908;2023-08-31T12:44:12;3.92;;;3.10;;
70707;SDS011;58277;47.316;18.908;2023-08-31T12:46:35;3.97;;;2.97;;
70707;SDS011;58277;47.316;18.908;2023-08-31T12:48:58;4.05;;;3.08;;
70707;SDS011;58277;47.316;18.908;2023-08-31T12:51:22;4.22;;;3.10;;
70707;SDS011;58277;47.316;18.908;2023-08-31T12:53:45;4.95;;;3.20;;
70707;SDS011;58277;47.316;18.908;2023-08-31T12:56:10;4.03;;;3.20;;
70707;SDS011;58277;47.316;18.908;2023-08-31T12:58:33;4.10;;;2.85;;
70707;SDS011;58277;47.316;18.908;2023-08-31T13:00:57;3.63;;;2.85;;
70707;SDS011;58277;47.316;18.908;2023-08-31T13:03:21;4.07;;;2.95;;
70707;SDS011;58277;47.316;18.908;2023-08-31T13:05:44;3.58;;;2.72;;
70707;SDS011;58277;47.316;18.908;2023-08-31T13:08:07;3.90;;;2.78;;
70707;SDS011;58277;47.316;18.908;2023-08-31T13:10:30;3.97;;;2.85;;
70707;SDS011;58277;47.316;18.908;2023-08-31T13:12:53;3.78;;;2.90;;
70707;SDS011;58277;47.316;18.908;2023-08-31T13:15:16;4.38;;;2.70;;
70707;SDS011;58277;47.316;18.908;2023-08-31T13:17:39;4.55;;;2.83;;
70707;SDS011;58277;47.316;18.908;2023-08-31T13:20:03;3.90;;;3.05;;
70707;SDS011;58277;47.316;18.908;2023-08-31T13:22:27;4.78;;;2.83;;
70707;SDS011;58277;47.316;18.908;2023-08-31T13:24:50;4.18;;;2.80;;
70707;SDS011;58277;47.316;18.908;2023-08-31T13:27:13;3.80;;;3.05;;
70707;SDS011;58277;47.316;18.908;2023-08-31T13:29:36;3.58;;;3.17;;
70707;SDS011;58277;47.316;18.908;2023-08-31T13:31:59;3.60;;;2.78;;
70707;SDS011;58277;47.316;18.908;2023-08-31T13:34:22;4.22;;;2.80;;
70707;SDS011;58277;47.316;18.908;2023-08-31T13:36:44;3.60;;;2.88;;
70707;SDS011;58277;47.316;18.908;2023-08-31T13:39:08;3.60;;;2.70;;
70707;SDS011;58277;47.316;18.908;2023-08-31T13:41:31;3.83;;;2.70;;
70707;SDS011;58277;47.316;18.908;2023-08-31T13:43:54;4.05;;;2.70;;
70707;SDS011;58277;47.316;18.908;2023-08-31T13:46:16;3.83;;;2.60;;
70707;SDS011;58277;47.316;18.908;2023-08-31T13:48:39;3.28;;;2.58;;
70707;SDS011;58277;47.316;18.908;2023-08-31T13:51:02;4.00;;;2.60;;
70707;SDS011;58277;47.316;18.908;2023-08-31T13:53:25;3.75;;;3.20;;
70707;SDS011;58277;47.316;18.908;2023-08-31T13:55:47;3.78;;;2.97;;
70707;SDS011;58277;47.316;18.908;2023-08-31T13:58:10;3.33;;;2.70;;
70707;SDS011;58277;47.316;18.908;2023-08-31T14:00:36;3.40;;;2.35;;
70707;SDS011;58277;47.316;18.908;2023-08-31T14:02:58;5.07;;;2.45;;
70707;SDS011;58277;47.316;18.908;2023-08-31T14:05:25;3.03;;;2.45;;
70707;SDS011;58277;47.316;18.908;2023-08-31T14:07:48;4.07;;;2.45;;
70707;SDS011;58277;47.316;18.908;2023-08-31T14:10:10;5.28;;;2.80;;
70707;SDS011;58277;47.316;18.908;2023-08-31T14:12:33;3.17;;;2.33;;
70707;SDS011;58277;47.316;18.908;2023-08-31T14:14:56;5.22;;;2.42;;
70707;SDS011;58277;47.316;18.908;2023-08-31T14:17:19;4.60;;;2.90;;
70707;SDS011;58277;47.316;18.908;2023-08-31T14:19:42;5.03;;;2.83;;
70707;SDS011;58277;47.316;18.908;2023-08-31T14:22:05;7.82;;;2.70;;
70707;SDS011;58277;47.316;18.908;2023-08-31T14:24:28;4.72;;;2.20;;
70707;SDS011;58277;47.316;18.908;2023-08-31T14:26:50;3.15;;;2.60;;
70707;SDS011;58277;47.316;18.908;2023-08-31T14:29:13;3.55;;;2.38;;
70707;SDS011;58277;47.316;18.908;2023-08-31T14:31:36;4.25;;;2.80;;
70707;SDS011;58277;47.316;18.908;2023-08-31T14:33:59;4.20;;;2.33;;